createdAt,value
2018-07-24T00:02:08.887Z,21.70
2018-07-24T00:04:37.884Z,21.60
2018-07-24T00:07:07.124Z,21.60
2018-07-24T00:09:36.145Z,21.60
2018-07-24T00:12:05.266Z,21.60
2018-07-24T00:14:34.347Z,21.50
2018-07-24T00:19:32.130Z,21.50
2018-07-24T00:22:01.220Z,21.40
2018-07-24T00:24:30.335Z,21.40
2018-07-24T00:26:59.411Z,21.30
2018-07-24T00:31:57.589Z,21.20
2018-07-24T00:36:55.343Z,21.20
2018-07-24T00:39:24.393Z,21.10
2018-07-24T00:41:53.374Z,21.10
2018-07-24T00:44:22.416Z,21.10
2018-07-24T00:46:51.612Z,21.10
2018-07-24T00:49:20.647Z,21.10
2018-07-24T00:54:18.821Z,21.00
2018-07-24T00:59:16.607Z,21.10
2018-07-24T01:01:45.749Z,21.00
2018-07-24T01:04:14.819Z,21.00
2018-07-24T01:06:43.923Z,21.00
2018-07-24T01:09:12.988Z,21.10
2018-07-24T01:16:39.975Z,20.90
2018-07-24T01:21:37.776Z,20.90
2018-07-24T01:24:06.828Z,20.80
2018-07-24T01:26:35.905Z,20.80
2018-07-24T01:29:04.940Z,20.80
2018-07-24T01:34:02.763Z,20.80
2018-07-24T01:36:31.831Z,20.80
2018-07-24T01:39:00.934Z,20.80
2018-07-24T01:41:30.036Z,20.70
2018-07-24T01:43:59.114Z,20.70
2018-07-24T01:46:28.233Z,20.60
2018-07-24T01:48:57.370Z,20.60
2018-07-24T01:51:26.421Z,20.50
2018-07-24T01:53:55.530Z,20.50
2018-07-24T01:56:24.662Z,20.50
2018-07-24T02:01:22.720Z,20.50
2018-07-24T02:03:51.808Z,20.40
2018-07-24T02:06:20.891Z,20.40
2018-07-24T02:08:49.980Z,20.40
2018-07-24T02:11:19.157Z,20.40
2018-07-24T02:13:48.256Z,20.40
2018-07-24T02:16:17.306Z,20.40
2018-07-24T02:18:46.419Z,20.40
2018-07-24T02:21:15.490Z,20.40
2018-07-24T02:23:44.536Z,20.40
2018-07-24T02:26:13.646Z,20.30
2018-07-24T02:28:42.686Z,20.20
2018-07-24T02:33:40.428Z,20.20
2018-07-24T02:36:09.536Z,20.20
2018-07-24T02:38:38.643Z,20.20
2018-07-24T02:41:07.743Z,20.10
2018-07-24T02:43:36.812Z,20.10
2018-07-24T02:46:06.048Z,20.10
2018-07-24T02:51:03.961Z,20.10
2018-07-24T02:53:33.016Z,20.00
2018-07-24T02:56:02.065Z,20.00
2018-07-24T02:58:31.194Z,20.10
2018-07-24T03:01:00.232Z,20.10
2018-07-24T03:03:29.368Z,20.20
2018-07-24T03:05:58.399Z,20.20
2018-07-24T03:10:56.247Z,20.20
2018-07-24T03:13:25.302Z,20.20
2018-07-24T03:15:54.398Z,20.20
2018-07-24T03:18:23.440Z,20.20
2018-07-24T03:20:52.561Z,20.20
2018-07-24T03:28:19.724Z,20.10
2018-07-24T03:30:48.897Z,20.10
2018-07-24T03:33:17.955Z,20.10
2018-07-24T03:35:47.015Z,20.10
2018-07-24T03:38:16.107Z,20.00
2018-07-24T03:40:45.178Z,19.90
2018-07-24T03:43:14.303Z,19.90
2018-07-24T03:50:40.908Z,19.90
2018-07-24T03:53:10.027Z,19.90
2018-07-24T03:55:39.047Z,19.90
2018-07-24T03:58:08.299Z,19.90
2018-07-24T04:00:37.367Z,20.00
2018-07-24T04:03:06.413Z,20.00
2018-07-24T04:05:35.542Z,20.10
2018-07-24T04:10:33.294Z,20.20
2018-07-24T04:13:02.340Z,20.10
2018-07-24T04:15:31.392Z,20.20
2018-07-24T04:20:29.205Z,20.20
2018-07-24T04:22:58.293Z,20.20
2018-07-24T04:25:27.318Z,20.20
2018-07-24T04:27:56.402Z,20.30
2018-07-24T04:30:25.455Z,20.30
2018-07-24T04:35:23.268Z,20.40
2018-07-24T04:37:52.352Z,20.40
2018-07-24T04:40:21.433Z,20.50
2018-07-24T04:45:19.134Z,20.70
2018-07-24T04:47:48.254Z,20.70
2018-07-24T04:50:18.634Z,20.80
2018-07-24T04:55:16.383Z,21.00
2018-07-24T04:57:45.593Z,21.00
2018-07-24T05:00:14.696Z,21.10
2018-07-24T05:02:43.820Z,21.20
2018-07-24T05:05:12.939Z,21.30
2018-07-24T05:07:41.948Z,21.30
2018-07-24T05:10:11.116Z,21.50
2018-07-24T05:12:40.139Z,21.60
2018-07-24T05:15:09.211Z,21.60
2018-07-24T05:17:38.263Z,21.70
2018-07-24T05:22:36.066Z,21.80
2018-07-24T05:25:06.845Z,21.90
2018-07-24T05:27:35.950Z,22.10
2018-07-24T05:30:05.580Z,22.20
2018-07-24T05:35:03.408Z,22.30
2018-07-24T05:37:32.504Z,22.30
2018-07-24T05:40:01.597Z,22.40
2018-07-24T05:42:30.697Z,22.50
2018-07-24T05:44:59.977Z,22.50
2018-07-24T05:47:29.078Z,22.60
2018-07-24T05:49:58.179Z,22.80
2018-07-24T05:52:27.284Z,23.00
2018-07-24T05:54:56.459Z,23.10
2018-07-24T05:57:25.593Z,23.10
2018-07-24T05:59:54.736Z,23.20
2018-07-24T06:02:23.820Z,23.10
2018-07-24T06:07:21.666Z,23.40
2018-07-24T06:09:51.625Z,23.40
2018-07-24T06:12:21.580Z,23.50
2018-07-24T06:14:50.709Z,23.60
2018-07-24T06:17:19.796Z,23.70
2018-07-24T06:22:17.559Z,23.90
2018-07-24T06:24:46.653Z,24.10
2018-07-24T06:27:15.787Z,24.10
2018-07-24T06:32:14.838Z,24.30
2018-07-24T06:34:43.902Z,24.40
2018-07-24T06:37:13.033Z,24.60
2018-07-24T06:39:42.070Z,24.70
2018-07-24T06:42:11.596Z,24.80
2018-07-24T06:47:09.446Z,25.00
2018-07-24T06:49:38.633Z,25.10
2018-07-24T06:52:08.649Z,25.20
2018-07-24T06:54:37.862Z,25.30
2018-07-24T06:57:07.059Z,25.30
2018-07-24T07:02:04.891Z,25.30
2018-07-24T07:04:33.982Z,25.10
2018-07-24T07:07:03.077Z,25.20
2018-07-24T07:09:32.219Z,25.40
2018-07-24T07:12:01.348Z,25.50
2018-07-24T07:14:31.354Z,25.60
2018-07-24T07:19:29.208Z,25.40
2018-07-24T07:24:27.037Z,25.70
2018-07-24T07:26:56.114Z,26.00
2018-07-24T07:32:03.170Z,26.50
2018-07-24T07:34:32.303Z,26.50
2018-07-24T07:41:58.788Z,26.20
2018-07-24T07:44:27.846Z,26.20
2018-07-24T07:46:56.948Z,26.20
2018-07-24T07:51:54.741Z,26.10
2018-07-24T07:59:21.527Z,26.50
2018-07-24T08:01:50.656Z,26.70
2018-07-24T08:04:19.816Z,26.80
2018-07-24T08:06:48.965Z,27.00
2018-07-24T08:09:18.065Z,27.00
2018-07-24T08:11:47.168Z,27.20
2018-07-24T08:14:16.282Z,27.10
2018-07-24T08:19:14.136Z,26.90
2018-07-24T08:21:43.204Z,26.90
2018-07-24T08:24:12.327Z,27.00
2018-07-24T08:26:41.397Z,27.20
2018-07-24T08:29:10.728Z,27.60
2018-07-24T08:31:40.197Z,27.80
2018-07-24T08:34:09.247Z,27.90
2018-07-24T08:39:09.180Z,28.00
2018-07-24T08:44:07.157Z,28.30
2018-07-24T08:49:06.411Z,28.70
2018-07-24T08:51:35.570Z,28.50
2018-07-24T08:56:33.387Z,28.40
2018-07-24T08:59:02.499Z,28.20
2018-07-24T09:01:31.631Z,28.30
2018-07-24T09:04:00.774Z,28.20
2018-07-24T09:06:29.864Z,28.20
2018-07-24T09:08:58.967Z,28.50
2018-07-24T09:11:28.140Z,28.60
2018-07-24T09:13:57.181Z,28.50
2018-07-24T09:16:26.315Z,28.50
2018-07-24T09:21:24.270Z,28.40
2018-07-24T09:23:53.330Z,28.70
2018-07-24T09:26:22.426Z,28.80
2018-07-24T09:28:51.501Z,28.60
2018-07-24T09:31:20.559Z,28.70
2018-07-24T09:33:49.629Z,28.70
2018-07-24T09:36:18.760Z,28.80
2018-07-24T09:38:47.762Z,28.80
2018-07-24T09:43:45.687Z,29.40
2018-07-24T09:46:14.738Z,29.50
2018-07-24T09:51:12.611Z,29.40
2018-07-24T09:56:10.559Z,29.10
2018-07-24T09:58:39.634Z,29.10
2018-07-24T10:01:14.055Z,28.70
2018-07-24T10:03:43.081Z,28.40
2018-07-24T10:06:12.200Z,28.40
2018-07-24T10:08:41.270Z,28.40
2018-07-24T10:11:10.377Z,28.60
2018-07-24T10:13:39.378Z,28.90
2018-07-24T10:16:10.594Z,29.10
2018-07-24T10:18:39.883Z,29.20
2018-07-24T10:21:08.974Z,29.40
2018-07-24T10:23:38.048Z,29.60
2018-07-24T10:26:07.162Z,29.90
2018-07-24T10:28:36.357Z,30.30
2018-07-24T10:31:05.467Z,30.40
2018-07-24T10:33:34.937Z,30.40
2018-07-24T10:36:04.065Z,30.50
2018-07-24T10:38:33.146Z,30.70
2018-07-24T10:41:02.270Z,30.90
2018-07-24T10:43:31.341Z,30.90
2018-07-24T10:46:00.481Z,30.80
2018-07-24T10:48:29.798Z,30.90
2018-07-24T10:50:58.956Z,31.20
2018-07-24T10:53:28.073Z,31.40
2018-07-24T10:55:57.207Z,31.60
2018-07-24T10:58:26.396Z,31.50
2018-07-24T11:00:55.493Z,31.50
2018-07-24T11:03:24.598Z,31.30
2018-07-24T11:05:53.729Z,31.40
2018-07-24T11:08:22.836Z,31.40
2018-07-24T11:10:51.838Z,31.40
2018-07-24T11:15:49.767Z,31.00
2018-07-24T11:18:18.784Z,30.90
2018-07-24T11:20:47.853Z,31.10
2018-07-24T11:23:16.917Z,31.30
2018-07-24T11:25:46.030Z,31.20
2018-07-24T11:28:15.165Z,30.90
2018-07-24T11:30:44.684Z,30.80
2018-07-24T11:33:13.823Z,30.80
2018-07-24T11:35:43.044Z,31.30
2018-07-24T11:38:12.046Z,31.50
2018-07-24T11:40:41.165Z,31.30
2018-07-24T11:43:10.179Z,31.40
2018-07-24T11:45:39.185Z,31.70
2018-07-24T11:48:08.261Z,31.80
2018-07-24T11:50:37.587Z,31.70
2018-07-24T11:53:06.654Z,31.70
2018-07-24T11:55:35.767Z,32.10
2018-07-24T11:58:04.840Z,32.30
2018-07-24T12:00:33.981Z,32.10
2018-07-24T12:03:02.982Z,32.20
2018-07-24T12:05:32.078Z,32.10
2018-07-24T12:08:01.152Z,31.80
2018-07-24T12:10:30.228Z,31.50
2018-07-24T12:12:59.465Z,31.50
2018-07-24T12:15:28.600Z,31.20
2018-07-24T12:22:55.130Z,31.70
2018-07-24T12:25:24.995Z,32.10
2018-07-24T12:27:54.121Z,32.70
2018-07-24T12:30:23.213Z,32.90
2018-07-24T12:32:52.323Z,33.00
2018-07-24T12:35:21.595Z,33.30
2018-07-24T12:37:50.703Z,34.60
2018-07-24T12:40:19.754Z,35.20
2018-07-24T12:45:17.758Z,36.40
2018-07-24T12:47:46.776Z,36.50
2018-07-24T12:50:15.897Z,35.90
2018-07-24T12:52:45.132Z,35.10
2018-07-24T12:57:42.912Z,34.50
2018-07-24T13:03:04.152Z,36.90
2018-07-24T13:05:33.274Z,38.70
2018-07-24T13:08:02.290Z,39.10
2018-07-24T13:10:31.395Z,38.30
2018-07-24T13:15:29.584Z,37.30
2018-07-24T13:17:58.683Z,38.60
2018-07-24T13:20:27.723Z,40.40
2018-07-24T13:22:56.859Z,41.10
2018-07-24T13:27:54.683Z,41.90
2018-07-24T13:30:23.835Z,42.10
2018-07-24T13:32:52.947Z,42.30
2018-07-24T13:37:50.757Z,43.30
2018-07-24T13:40:20.068Z,43.40
2018-07-24T13:42:49.144Z,43.90
2018-07-24T13:47:47.045Z,42.20
2018-07-24T13:50:16.197Z,42.90
2018-07-24T13:52:45.385Z,43.50
2018-07-24T13:55:14.568Z,43.30
2018-07-24T13:57:43.644Z,43.40
2018-07-24T14:00:12.732Z,43.50
2018-07-24T14:02:41.836Z,43.80
2018-07-24T14:05:10.979Z,44.10
2018-07-24T14:07:40.084Z,43.50
2018-07-24T14:10:09.271Z,43.50
2018-07-24T14:12:38.473Z,44.50
2018-07-24T14:15:07.759Z,44.70
2018-07-24T14:17:36.817Z,45.10
2018-07-24T14:20:06.145Z,45.70
2018-07-24T14:22:35.231Z,45.80
2018-07-24T14:25:04.304Z,46.40
2018-07-24T14:27:33.630Z,46.50
2018-07-24T14:30:02.704Z,46.90
2018-07-24T14:32:31.869Z,47.10
2018-07-24T14:40:56.663Z,46.30
2018-07-24T14:43:25.863Z,46.30
2018-07-24T14:45:54.963Z,46.50
2018-07-24T14:48:24.031Z,45.50
2018-07-24T14:50:53.139Z,44.00
2018-07-24T14:53:22.389Z,42.10
2018-07-24T14:55:51.517Z,41.50
2018-07-24T14:58:20.644Z,40.90
2018-07-24T15:00:49.641Z,41.40
2018-07-24T15:03:18.886Z,40.90
2018-07-24T15:05:47.931Z,39.60
2018-07-24T15:10:45.732Z,36.50
2018-07-24T15:13:14.793Z,35.50
2018-07-24T15:18:13.380Z,40.10
2018-07-24T15:20:42.447Z,42.40
2018-07-24T15:23:11.540Z,43.70
2018-07-24T15:25:40.695Z,44.70
2018-07-24T15:33:07.366Z,47.20
2018-07-24T15:40:34.343Z,48.70
2018-07-24T15:45:32.050Z,47.40
2018-07-24T15:48:01.356Z,45.80
2018-07-24T15:50:30.474Z,45.30
2018-07-24T15:52:59.565Z,46.20
2018-07-24T15:55:28.715Z,47.10
2018-07-24T15:57:57.853Z,45.70
2018-07-24T16:00:27.263Z,45.90
2018-07-24T16:02:56.412Z,45.20
2018-07-24T16:05:25.539Z,44.50
2018-07-24T16:07:54.702Z,44.90
2018-07-24T16:10:24.543Z,44.90
2018-07-24T16:12:54.073Z,44.10
2018-07-24T16:15:23.305Z,44.20
2018-07-24T16:17:52.392Z,45.60
2018-07-24T16:22:50.451Z,45.10
2018-07-24T16:25:19.681Z,44.40
2018-07-24T16:30:18.080Z,44.60
2018-07-24T16:32:47.228Z,45.60
2018-07-24T16:35:16.270Z,45.80
2018-07-24T16:37:45.450Z,44.90
2018-07-24T16:40:14.827Z,42.30
2018-07-24T16:42:43.924Z,39.50
2018-07-24T16:45:13.062Z,37.70
2018-07-24T16:47:42.210Z,36.40
2018-07-24T16:50:11.331Z,35.30
2018-07-24T16:55:09.194Z,34.30
2018-07-24T16:57:38.271Z,34.00
2018-07-24T17:00:07.464Z,33.60
2018-07-24T17:02:36.591Z,33.20
2018-07-24T17:07:34.924Z,32.80
2018-07-24T17:10:04.320Z,32.90
2018-07-24T17:12:33.670Z,32.70
2018-07-24T17:15:02.883Z,32.60
2018-07-24T17:17:32.315Z,32.60
2018-07-24T17:20:01.408Z,32.50
2018-07-24T17:22:31.024Z,32.40
2018-07-24T17:25:00.209Z,32.10
2018-07-24T17:27:29.665Z,32.10
2018-07-24T17:29:58.965Z,32.00
2018-07-24T17:32:28.031Z,31.80
2018-07-24T17:34:57.077Z,31.60
2018-07-24T17:37:26.161Z,31.50
2018-07-24T17:39:55.315Z,31.60
2018-07-24T17:42:24.750Z,31.60
2018-07-24T17:44:53.928Z,31.50
2018-07-24T17:47:22.992Z,31.60
2018-07-24T17:49:52.084Z,31.60
2018-07-24T17:52:21.207Z,31.60
2018-07-24T17:54:50.309Z,31.50
2018-07-24T17:57:19.448Z,31.40
2018-07-24T18:02:17.430Z,31.20
2018-07-24T18:07:15.879Z,31.00
2018-07-24T18:09:45.240Z,31.10
2018-07-24T18:14:43.285Z,31.20
2018-07-24T18:17:12.974Z,31.10
2018-07-24T18:22:10.945Z,30.90
2018-07-24T18:24:40.635Z,30.90
2018-07-24T18:27:09.863Z,30.80
2018-07-24T18:29:39.006Z,30.60
2018-07-24T18:32:10.128Z,30.50
2018-07-24T18:34:39.633Z,30.40
2018-07-24T18:37:08.995Z,30.20
2018-07-24T18:39:38.170Z,30.10
2018-07-24T18:42:07.617Z,29.90
2018-07-24T18:44:36.648Z,29.80
2018-07-24T18:49:34.700Z,29.50
2018-07-24T18:52:04.860Z,29.40
2018-07-24T18:57:04.377Z,29.10
2018-07-24T19:02:02.330Z,28.90
2018-07-24T19:04:31.390Z,28.80
2018-07-24T19:07:00.694Z,28.70
2018-07-24T19:09:29.921Z,28.60
2018-07-24T19:11:59.039Z,28.50
2018-07-24T19:14:28.356Z,28.40
2018-07-24T19:16:57.478Z,28.40
2018-07-24T19:19:26.566Z,28.30
2018-07-24T19:21:55.698Z,28.30
2018-07-24T19:24:24.871Z,28.20
2018-07-24T19:26:53.955Z,28.10
2018-07-24T19:29:23.131Z,28.00
2018-07-24T19:31:52.183Z,28.00
2018-07-24T19:34:21.327Z,28.00
2018-07-24T19:36:50.599Z,27.90
2018-07-24T19:39:20.682Z,27.80
2018-07-24T19:41:50.129Z,27.70
2018-07-24T19:44:19.803Z,27.60
2018-07-24T19:46:48.919Z,27.60
2018-07-24T19:49:18.025Z,27.50
2018-07-24T19:51:47.218Z,27.40
2018-07-24T19:54:16.283Z,27.40
2018-07-24T19:56:45.756Z,27.30
2018-07-24T20:01:43.715Z,27.30
2018-07-24T20:04:12.836Z,27.20
2018-07-24T20:06:41.982Z,27.20
2018-07-24T20:11:41.077Z,27.20
2018-07-24T20:14:10.254Z,27.10
2018-07-24T20:16:39.426Z,27.10
2018-07-24T20:21:37.568Z,27.00
2018-07-24T20:24:06.795Z,26.90
2018-07-24T20:26:35.911Z,26.90
2018-07-24T20:29:05.073Z,26.80
2018-07-24T20:31:34.207Z,26.80
2018-07-24T20:34:03.350Z,26.70
2018-07-24T20:36:32.565Z,26.70
2018-07-24T20:39:01.717Z,26.60
2018-07-24T20:41:30.838Z,26.50
2018-07-24T20:46:28.715Z,26.40
2018-07-24T20:48:57.828Z,26.40
2018-07-24T20:51:26.940Z,26.30
2018-07-24T20:53:56.022Z,26.30
2018-07-24T20:56:25.454Z,26.30
2018-07-24T20:58:54.526Z,26.20
2018-07-24T21:01:23.684Z,26.10
2018-07-24T21:03:52.767Z,26.10
2018-07-24T21:06:21.835Z,26.10
2018-07-24T21:08:51.094Z,26.10
2018-07-24T21:13:48.911Z,26.10
2018-07-24T21:16:18.024Z,26.00
2018-07-24T21:18:47.126Z,25.90
2018-07-24T21:21:16.230Z,25.90
2018-07-24T21:23:45.339Z,25.80
2018-07-24T21:26:15.036Z,25.80
2018-07-24T21:28:44.224Z,25.80
2018-07-24T21:31:13.593Z,25.80
2018-07-24T21:33:42.806Z,25.70
2018-07-24T21:36:12.059Z,25.60
2018-07-24T21:38:41.268Z,25.60
2018-07-24T21:41:10.654Z,25.60
2018-07-24T21:43:39.836Z,25.60
2018-07-24T21:46:09.021Z,25.60
2018-07-24T21:48:38.925Z,25.50
2018-07-24T21:51:08.369Z,25.50
2018-07-24T21:53:37.525Z,25.50
2018-07-24T21:56:06.726Z,25.50
2018-07-24T21:58:36.885Z,25.40
2018-07-24T22:01:13.245Z,25.40
2018-07-24T22:03:42.691Z,25.40
2018-07-24T22:06:11.773Z,25.30
2018-07-24T22:08:40.915Z,25.30
2018-07-24T22:11:09.938Z,25.20
2018-07-24T22:13:39.037Z,25.20
2018-07-24T22:16:08.101Z,25.10
2018-07-24T22:18:37.200Z,25.10
2018-07-24T22:23:35.034Z,25.00
2018-07-24T22:26:04.103Z,25.00
2018-07-24T22:28:33.177Z,25.00
2018-07-24T22:33:31.060Z,24.90
2018-07-24T22:38:28.813Z,24.90
2018-07-24T22:43:26.676Z,24.80
2018-07-24T22:45:55.815Z,24.80
2018-07-24T22:50:53.733Z,24.80
2018-07-24T22:53:22.804Z,24.70
2018-07-24T22:55:51.833Z,24.70
2018-07-24T22:58:20.938Z,24.60
2018-07-24T23:00:50.019Z,24.60
2018-07-24T23:03:19.025Z,24.60
2018-07-24T23:05:48.082Z,24.50
2018-07-24T23:08:17.172Z,24.50
2018-07-24T23:10:46.268Z,24.50
2018-07-24T23:13:15.412Z,24.40
2018-07-24T23:18:13.285Z,24.40
2018-07-24T23:20:42.352Z,24.40
2018-07-24T23:23:11.439Z,24.30
2018-07-24T23:25:40.489Z,24.30
2018-07-24T23:28:09.520Z,24.30
2018-07-24T23:30:38.674Z,24.20
2018-07-24T23:33:07.771Z,24.20
2018-07-24T23:35:36.922Z,24.20
2018-07-24T23:38:06.318Z,24.20
2018-07-24T23:40:35.381Z,24.20
2018-07-24T23:45:33.514Z,24.10
2018-07-24T23:48:02.644Z,24.10
2018-07-24T23:50:31.724Z,24.10
2018-07-24T23:53:00.855Z,24.10
2018-07-24T23:55:30.125Z,24.10
2018-07-24T23:57:59.182Z,24.00
